createdAt,value
2023-02-09T00:00:50.446Z,96643.88
2023-02-09T00:02:52.058Z,96641.31
2023-02-09T00:04:53.694Z,96633.75
2023-02-09T00:06:55.296Z,96635.44
2023-02-09T00:08:58.408Z,96632.00
2023-02-09T00:11:00.079Z,96632.84
2023-02-09T00:13:20.482Z,96632.84
2023-02-09T00:15:22.200Z,96631.13
2023-02-09T00:17:24.028Z,96631.06
2023-02-09T00:19:25.683Z,96627.66
2023-02-09T00:21:27.237Z,96625.94
2023-02-09T00:23:30.630Z,96625.91
2023-02-09T00:25:32.245Z,96628.50
2023-02-09T00:27:35.852Z,96631.19
2023-02-09T00:29:37.590Z,96626.94
2023-02-09T00:31:39.814Z,96615.88
2023-02-09T00:33:41.609Z,96621.88
2023-02-09T00:35:44.145Z,96624.38
2023-02-09T00:37:45.817Z,96623.53
2023-02-09T00:39:47.578Z,96613.28
2023-02-09T00:42:07.032Z,96613.31
2023-02-09T00:44:12.096Z,96615.88
2023-02-09T00:46:13.773Z,96614.22
2023-02-09T00:48:15.415Z,96613.44
2023-02-09T00:50:17.005Z,96608.41
2023-02-09T00:52:18.589Z,96608.34
2023-02-09T00:54:20.265Z,96605.84
2023-02-09T00:56:21.897Z,96597.44
2023-02-09T00:58:23.569Z,96598.25
2023-02-09T01:00:26.307Z,96589.66
2023-02-09T01:02:27.935Z,96585.41
2023-02-09T01:04:29.793Z,96587.94
2023-02-09T01:06:31.771Z,96589.59
2023-02-09T01:08:33.723Z,96589.69
2023-02-09T01:10:35.494Z,96589.81
2023-02-09T01:12:39.942Z,96586.84
2023-02-09T01:14:41.926Z,96585.13
2023-02-09T01:16:43.700Z,96592.16
2023-02-09T01:18:45.440Z,96588.88
2023-02-09T01:20:47.532Z,96581.16
2023-02-09T01:22:50.559Z,96582.88
2023-02-09T01:24:52.165Z,96584.56
2023-02-09T01:26:53.817Z,96575.06
2023-02-09T01:28:55.694Z,96567.16
2023-02-09T01:30:57.692Z,96577.28
2023-02-09T01:32:59.389Z,96569.47
2023-02-09T01:35:01.146Z,96569.34
2023-02-09T01:37:02.852Z,96574.25
2023-02-09T01:39:05.040Z,96580.19
2023-02-09T01:41:06.694Z,96572.47
2023-02-09T01:43:11.523Z,96569.00
2023-02-09T01:45:38.976Z,96565.59
2023-02-09T01:47:48.634Z,96568.25
2023-02-09T01:49:51.642Z,96567.38
2023-02-09T01:52:16.006Z,96568.25
2023-02-09T01:54:23.074Z,96571.69
2023-02-09T01:56:29.735Z,96561.44
2023-02-09T01:58:31.793Z,96562.16
2023-02-09T02:00:33.497Z,96564.72
2023-02-09T02:02:35.366Z,96565.56
2023-02-09T02:04:38.044Z,96557.88
2023-02-09T02:06:40.362Z,96560.41
2023-02-09T02:08:48.378Z,96556.13
2023-02-09T02:10:51.077Z,96559.47
2023-02-09T02:12:54.499Z,96551.84
2023-02-09T02:14:56.122Z,96552.66
2023-02-09T02:17:24.056Z,96551.97
2023-02-09T02:19:49.931Z,96548.69
2023-02-09T02:22:14.578Z,96547.84
2023-02-09T02:24:25.483Z,96549.16
2023-02-09T02:26:42.457Z,96546.03
2023-02-09T02:29:01.937Z,96552.81
2023-02-09T02:31:28.365Z,96550.38
2023-02-09T02:33:39.279Z,96553.03
2023-02-09T02:35:47.513Z,96546.09
2023-02-09T02:38:02.814Z,96551.97
2023-02-09T02:40:11.107Z,96545.25
2023-02-09T02:42:52.153Z,96539.19
2023-02-09T02:45:01.821Z,96533.31
2023-02-09T02:47:06.770Z,96529.03
2023-02-09T02:49:17.144Z,96538.31
2023-02-09T02:51:31.852Z,96532.31
2023-02-09T02:53:36.016Z,96526.31
2023-02-09T02:55:38.481Z,96531.34
2023-02-09T02:57:43.891Z,96522.84
2023-02-09T02:59:53.130Z,96522.88
2023-02-09T03:01:59.062Z,96527.06
2023-02-09T03:04:01.726Z,96516.84
2023-02-09T03:06:05.910Z,96529.63
2023-02-09T03:08:07.468Z,96526.19
2023-02-09T03:10:30.395Z,96527.03
2023-02-09T03:12:37.919Z,96523.69
2023-02-09T03:14:56.489Z,96520.22
2023-02-09T03:17:12.324Z,96521.00
2023-02-09T03:19:16.775Z,96528.13
2023-02-09T03:21:38.067Z,96514.72
2023-02-09T03:23:48.648Z,96519.81
2023-02-09T03:25:52.557Z,96525.66
2023-02-09T03:27:57.557Z,96522.09
2023-02-09T03:30:01.270Z,96518.56
2023-02-09T03:32:03.070Z,96513.34
2023-02-09T03:34:05.546Z,96515.88
2023-02-09T03:36:12.831Z,96519.41
2023-02-09T03:38:14.467Z,96520.22
2023-02-09T03:40:35.235Z,96514.28
2023-02-09T03:42:36.889Z,96512.44
2023-02-09T03:44:38.461Z,96513.25
2023-02-09T03:46:40.136Z,96513.19
2023-02-09T03:48:41.877Z,96508.22
2023-02-09T03:50:43.785Z,96509.09
2023-02-09T03:52:45.680Z,96508.22
2023-02-09T03:54:47.905Z,96509.19
2023-02-09T03:56:49.652Z,96513.66
2023-02-09T03:58:52.107Z,96503.56
2023-02-09T04:00:53.744Z,96517.41
2023-02-09T04:02:56.408Z,96519.06
2023-02-09T04:04:58.019Z,96514.78
2023-02-09T04:07:00.078Z,96512.25
2023-02-09T04:09:02.737Z,96513.97
2023-02-09T04:11:04.477Z,96519.91
2023-02-09T04:13:06.096Z,96507.94
2023-02-09T04:15:08.027Z,96512.16
2023-02-09T04:17:09.772Z,96511.28
2023-02-09T04:19:12.396Z,96514.59
2023-02-09T04:21:14.368Z,96510.28
2023-02-09T04:23:16.039Z,96509.31
2023-02-09T04:25:17.817Z,96508.34
2023-02-09T04:27:19.381Z,96510.00
2023-02-09T04:29:21.192Z,96508.28
2023-02-09T04:31:23.152Z,96509.09
2023-02-09T04:33:25.264Z,96507.31
2023-02-09T04:35:26.874Z,96504.00
2023-02-09T04:37:28.530Z,96513.31
2023-02-09T04:39:30.318Z,96505.53
2023-02-09T04:41:31.923Z,96509.75
2023-02-09T04:43:33.750Z,96508.91
2023-02-09T04:45:38.406Z,96508.91
2023-02-09T04:47:40.056Z,96512.50
2023-02-09T04:49:42.771Z,96514.31
2023-02-09T04:51:44.380Z,96504.09
2023-02-09T04:53:46.020Z,96504.91
2023-02-09T04:55:48.005Z,96512.69
2023-02-09T04:58:08.137Z,96505.22
2023-02-09T05:00:10.534Z,96514.06
2023-02-09T05:02:12.506Z,96515.97
2023-02-09T05:04:14.068Z,96519.38
2023-02-09T05:06:15.870Z,96516.72
2023-02-09T05:08:17.491Z,96509.00
2023-02-09T05:10:19.243Z,96510.69
2023-02-09T05:12:20.928Z,96512.28
2023-02-09T05:14:22.515Z,96513.84
2023-02-09T05:16:24.150Z,96517.13
2023-02-09T05:18:25.976Z,96525.53
2023-02-09T05:20:27.596Z,96524.63
2023-02-09T05:22:29.290Z,96522.91
2023-02-09T05:24:31.021Z,96517.72
2023-02-09T05:26:32.641Z,96513.44
2023-02-09T05:28:34.378Z,96510.91
2023-02-09T05:30:35.978Z,96511.78
2023-02-09T05:32:37.603Z,96514.31
2023-02-09T05:34:39.227Z,96525.34
2023-02-09T05:36:40.801Z,96519.41
2023-02-09T05:38:42.480Z,96516.78
2023-02-09T05:40:45.218Z,96512.44
2023-02-09T05:42:47.055Z,96519.19
2023-02-09T05:44:50.301Z,96523.41
2023-02-09T05:46:51.926Z,96531.09
2023-02-09T05:48:53.583Z,96536.13
2023-02-09T05:50:55.199Z,96531.75
2023-02-09T05:53:00.122Z,96535.91
2023-02-09T05:55:01.762Z,96535.00
2023-02-09T05:57:03.651Z,96532.44
2023-02-09T05:59:05.393Z,96533.19
2023-02-09T06:01:06.952Z,96531.47
2023-02-09T06:03:08.660Z,96532.28
2023-02-09T06:05:10.549Z,96530.63
2023-02-09T06:07:12.215Z,96534.09
2023-02-09T06:09:13.935Z,96536.56
2023-02-09T06:11:15.602Z,96523.78
2023-02-09T06:13:17.230Z,96523.66
2023-02-09T06:15:18.960Z,96527.00
2023-02-09T06:17:20.615Z,96522.66
2023-02-09T06:19:22.286Z,96515.78
2023-02-09T06:21:24.149Z,96512.25
2023-02-09T06:23:25.752Z,96506.06
2023-02-09T06:25:27.441Z,96502.75
2023-02-09T06:27:29.079Z,96509.50
2023-02-09T06:29:31.484Z,96511.13
2023-02-09T06:31:34.064Z,96512.75
2023-02-09T06:33:37.127Z,96511.75
2023-02-09T06:35:38.836Z,96520.25
2023-02-09T06:37:40.419Z,96516.88
2023-02-09T06:39:42.036Z,96506.72
2023-02-09T06:41:43.690Z,96504.31
2023-02-09T06:43:45.339Z,96504.31
2023-02-09T06:45:46.968Z,96502.50
2023-02-09T06:47:48.640Z,96507.53
2023-02-09T06:49:50.217Z,96499.94
2023-02-09T06:51:52.157Z,96494.28
2023-02-09T06:53:54.235Z,96492.53
2023-02-09T06:56:01.522Z,96492.53
2023-02-09T06:58:03.771Z,96492.50
2023-02-09T07:00:08.647Z,96493.34
2023-02-09T07:02:10.969Z,96494.25
2023-02-09T07:04:12.564Z,96488.88
2023-02-09T07:06:16.705Z,96490.34
2023-02-09T07:08:18.352Z,96484.91
2023-02-09T07:10:20.138Z,96489.72
2023-02-09T07:12:21.788Z,96479.06
2023-02-09T07:14:23.397Z,96481.53
2023-02-09T07:16:25.069Z,96485.53
2023-02-09T07:18:27.678Z,96493.34
2023-02-09T07:20:29.331Z,96492.75
2023-02-09T07:22:31.055Z,96491.00
2023-02-09T07:24:32.684Z,96495.88
2023-02-09T07:26:34.327Z,96485.78
2023-02-09T07:28:36.656Z,96480.47
2023-02-09T07:30:41.200Z,96482.94
2023-02-09T07:32:43.025Z,96482.19
2023-02-09T07:34:44.635Z,96484.69
2023-02-09T07:36:47.750Z,96480.91
2023-02-09T07:38:49.800Z,96481.53
2023-02-09T07:40:51.779Z,96474.78
2023-02-09T07:42:53.438Z,96465.50
2023-02-09T07:44:55.158Z,96475.41
2023-02-09T07:46:56.816Z,96470.88
2023-02-09T07:49:01.107Z,96469.69
2023-02-09T07:51:03.735Z,96468.94
2023-02-09T07:53:05.353Z,96455.25
2023-02-09T07:55:07.422Z,96457.16
2023-02-09T07:57:09.038Z,96457.88
2023-02-09T07:59:11.464Z,96452.63
2023-02-09T08:01:14.408Z,96459.97
2023-02-09T08:03:18.552Z,96455.13
2023-02-09T08:05:28.444Z,96462.28
2023-02-09T08:07:30.394Z,96470.28
2023-02-09T08:09:32.004Z,96464.84
2023-02-09T08:11:46.055Z,96467.66
2023-02-09T08:13:48.105Z,96461.84
2023-02-09T08:15:54.585Z,96456.34
2023-02-09T08:17:57.906Z,96462.63
2023-02-09T08:20:03.548Z,96459.38
2023-02-09T08:22:05.116Z,96470.19
2023-02-09T08:24:08.093Z,96466.94
2023-02-09T08:26:11.881Z,96464.09
2023-02-09T08:28:13.493Z,96468.16
2023-02-09T08:30:17.116Z,96469.78
2023-02-09T08:32:18.751Z,96464.88
2023-02-09T08:34:20.391Z,96454.84
2023-02-09T08:36:22.065Z,96449.09
2023-02-09T08:38:23.650Z,96439.41
2023-02-09T08:40:25.271Z,96449.06
2023-02-09T08:42:26.962Z,96453.38
2023-02-09T08:44:28.545Z,96455.16
2023-02-09T08:46:30.365Z,96450.25
2023-02-09T08:48:35.673Z,96453.91
2023-02-09T08:50:38.494Z,96449.78
2023-02-09T08:52:40.580Z,96455.81
2023-02-09T08:54:42.240Z,96453.94
2023-02-09T08:56:44.302Z,96455.44
2023-02-09T08:58:45.919Z,96467.47
2023-02-09T09:00:47.590Z,96460.19
2023-02-09T09:02:49.254Z,96474.19
2023-02-09T09:04:50.894Z,96468.69
2023-02-09T09:06:52.478Z,96463.41
2023-02-09T09:08:54.170Z,96469.59
2023-02-09T09:10:56.096Z,96466.22
2023-02-09T09:12:58.907Z,96474.94
2023-02-09T09:15:00.759Z,96471.66
2023-02-09T09:17:02.392Z,96474.56
2023-02-09T09:19:05.148Z,96468.56
2023-02-09T09:21:06.848Z,96475.88
2023-02-09T09:23:09.148Z,96472.75
2023-02-09T09:25:10.929Z,96476.28
2023-02-09T09:27:12.592Z,96464.84
2023-02-09T09:29:14.159Z,96466.03
2023-02-09T09:31:18.914Z,96468.50
2023-02-09T09:33:20.543Z,96463.09
2023-02-09T09:35:22.310Z,96457.88
2023-02-09T09:37:25.319Z,96456.84
2023-02-09T09:39:26.986Z,96458.25
2023-02-09T09:41:29.940Z,96461.19
2023-02-09T09:43:37.088Z,96462.88
2023-02-09T09:45:39.038Z,96461.56
2023-02-09T09:47:42.223Z,96455.16
2023-02-09T09:49:44.121Z,96461.75
2023-02-09T09:52:11.869Z,96456.84
2023-02-09T09:54:25.241Z,96456.44
2023-02-09T09:56:29.726Z,96455.00
2023-02-09T09:58:33.125Z,96460.34
2023-02-09T10:00:41.479Z,96461.66
2023-02-09T10:02:44.490Z,96462.44
2023-02-09T10:04:47.852Z,96459.59
2023-02-09T10:06:58.337Z,96457.72
2023-02-09T10:09:06.472Z,96455.06
2023-02-09T10:11:16.715Z,96445.72
2023-02-09T10:13:22.340Z,96440.25
2023-02-09T10:15:33.543Z,96438.13
2023-02-09T10:17:35.148Z,96434.03
2023-02-09T10:19:36.772Z,96424.84
2023-02-09T10:21:38.522Z,96432.41
2023-02-09T10:23:46.019Z,96419.78
2023-02-09T10:25:59.657Z,96420.78
2023-02-09T10:28:06.372Z,96415.00
2023-02-09T10:30:19.371Z,96420.50
2023-02-09T10:32:23.736Z,96419.41
2023-02-09T10:34:37.382Z,96415.53
2023-02-09T10:37:18.006Z,96420.41
2023-02-09T10:39:30.908Z,96410.94
2023-02-09T10:41:34.134Z,96414.88
2023-02-09T10:43:35.895Z,96409.06
2023-02-09T10:45:39.922Z,96409.81
2023-02-09T10:47:41.963Z,96415.31
2023-02-09T10:49:43.547Z,96412.03
2023-02-09T10:51:45.192Z,96408.13
2023-02-09T10:53:55.976Z,96404.66
2023-02-09T10:56:19.027Z,96404.34
2023-02-09T10:58:27.014Z,96400.59
2023-02-09T11:00:32.322Z,96394.69
2023-02-09T11:02:36.203Z,96395.25
2023-02-09T11:04:57.530Z,96390.97
2023-02-09T11:07:01.526Z,96400.75
2023-02-09T11:09:12.861Z,96399.81
2023-02-09T11:11:23.737Z,96401.47
2023-02-09T11:13:26.424Z,96394.78
2023-02-09T11:15:34.483Z,96389.19
2023-02-09T11:17:46.464Z,96380.66
2023-02-09T11:19:48.065Z,96380.25
2023-02-09T11:22:11.064Z,96378.19
2023-02-09T11:24:37.446Z,96374.69
2023-02-09T11:26:39.535Z,96377.50
2023-02-09T11:28:59.650Z,96381.34
2023-02-09T11:31:39.820Z,96368.28
2023-02-09T11:34:05.087Z,96364.09
2023-02-09T11:36:42.030Z,96369.59
2023-02-09T11:38:53.298Z,96373.78
2023-02-09T11:40:56.712Z,96360.25
2023-02-09T11:43:10.141Z,96371.16
2023-02-09T11:45:19.647Z,96362.63
2023-02-09T11:47:27.204Z,96355.03
2023-02-09T11:49:30.228Z,96347.72
2023-02-09T11:51:34.939Z,96343.53
2023-02-09T11:53:45.692Z,96338.19
2023-02-09T11:55:49.372Z,96342.94
2023-02-09T11:57:56.949Z,96343.69
2023-02-09T11:59:59.309Z,96344.13
2023-02-09T12:02:38.296Z,96338.44
2023-02-09T12:04:59.608Z,96332.09
2023-02-09T12:07:03.621Z,96335.03
2023-02-09T12:09:15.189Z,96332.44
2023-02-09T12:11:48.118Z,96336.34
2023-02-09T12:14:04.674Z,96336.44
2023-02-09T12:16:18.591Z,96332.88
2023-02-09T12:18:23.413Z,96330.69
2023-02-09T12:20:44.511Z,96340.19
2023-02-09T12:23:01.270Z,96323.13
2023-02-09T12:25:11.769Z,96319.34
2023-02-09T12:27:25.688Z,96319.16
2023-02-09T12:29:30.102Z,96319.16
2023-02-09T12:32:00.393Z,96316.03
2023-02-09T12:34:10.479Z,96306.16
2023-02-09T12:36:16.975Z,96309.31
2023-02-09T12:38:19.687Z,96312.41
2023-02-09T12:40:23.824Z,96301.19
2023-02-09T12:42:30.732Z,96313.25
2023-02-09T12:44:32.309Z,96298.91
2023-02-09T12:46:47.717Z,96302.78
2023-02-09T12:49:01.489Z,96302.31
2023-02-09T12:51:03.132Z,96301.91
2023-02-09T12:53:31.522Z,96298.41
2023-02-09T12:55:33.264Z,96302.31
2023-02-09T12:57:51.159Z,96293.50
2023-02-09T12:59:52.748Z,96290.31
2023-02-09T13:02:07.296Z,96292.91
2023-02-09T13:04:09.122Z,96289.03
2023-02-09T13:06:27.433Z,96278.31
2023-02-09T13:08:35.103Z,96284.97
2023-02-09T13:10:44.432Z,96276.81
2023-02-09T13:12:50.880Z,96279.06
2023-02-09T13:14:52.532Z,96275.13
2023-02-09T13:17:09.300Z,96277.72
2023-02-09T13:19:47.388Z,96284.00
2023-02-09T13:22:19.806Z,96271.09
2023-02-09T13:24:46.867Z,96288.44
2023-02-09T13:26:51.542Z,96288.06
2023-02-09T13:29:29.693Z,96285.47
2023-02-09T13:31:36.748Z,96285.44
2023-02-09T13:34:00.835Z,96284.78
2023-02-09T13:36:48.711Z,96284.06
2023-02-09T13:38:50.835Z,96292.19
2023-02-09T13:40:52.584Z,96281.94
2023-02-09T13:43:17.637Z,96293.09
2023-02-09T13:45:19.731Z,96289.69
2023-02-09T13:47:21.896Z,96283.56
2023-02-09T13:49:25.425Z,96277.88
2023-02-09T13:51:27.043Z,96271.38
2023-02-09T13:53:30.266Z,96284.06
2023-02-09T13:55:32.044Z,96273.75
2023-02-09T13:57:38.729Z,96276.59
2023-02-09T13:59:41.785Z,96275.97
2023-02-09T14:01:46.338Z,96269.84
2023-02-09T14:03:58.565Z,96268.69
2023-02-09T14:06:01.908Z,96263.50
2023-02-09T14:08:03.767Z,96261.78
2023-02-09T14:10:16.991Z,96269.66
2023-02-09T14:12:42.363Z,96268.44
2023-02-09T14:15:09.531Z,96265.28
2023-02-09T14:17:24.419Z,96266.94
2023-02-09T14:19:30.776Z,96262.94
2023-02-09T14:21:37.491Z,96273.84
2023-02-09T14:23:50.202Z,96267.72
2023-02-09T14:26:15.209Z,96270.75
2023-02-09T14:28:16.855Z,96266.16
2023-02-09T14:30:32.112Z,96265.31
2023-02-09T14:32:40.451Z,96270.91
2023-02-09T14:34:42.859Z,96274.22
2023-02-09T14:36:54.999Z,96272.81
2023-02-09T14:39:16.882Z,96266.16
2023-02-09T14:41:28.152Z,96264.31
2023-02-09T14:43:29.917Z,96259.13
2023-02-09T14:45:37.637Z,96259.06
2023-02-09T14:47:44.080Z,96259.97
2023-02-09T14:49:45.663Z,96269.63
2023-02-09T14:51:48.746Z,96280.69
2023-02-09T14:53:50.536Z,96281.25
2023-02-09T14:55:54.242Z,96287.31
2023-02-09T14:57:55.952Z,96294.41
2023-02-09T14:59:57.579Z,96286.38
2023-02-09T15:01:59.236Z,96293.25
2023-02-09T15:04:00.815Z,96290.56
2023-02-09T15:06:04.155Z,96288.28
2023-02-09T15:08:09.049Z,96290.59
2023-02-09T15:10:31.969Z,96292.22
2023-02-09T15:12:33.684Z,96296.84
2023-02-09T15:14:42.494Z,96304.66
2023-02-09T15:16:44.030Z,96307.09
2023-02-09T15:18:45.689Z,96308.00
2023-02-09T15:20:47.447Z,96306.31
2023-02-09T15:22:49.118Z,96306.47
2023-02-09T15:24:54.334Z,96314.41
2023-02-09T15:26:56.328Z,96317.72
2023-02-09T15:28:57.912Z,96313.94
2023-02-09T15:30:59.943Z,96321.34
2023-02-09T15:33:02.088Z,96311.94
2023-02-09T15:35:05.192Z,96325.13
2023-02-09T15:37:06.937Z,96326.81
2023-02-09T15:39:19.203Z,96332.53
2023-02-09T15:41:44.080Z,96330.75
2023-02-09T15:44:03.957Z,96340.84
2023-02-09T15:46:06.459Z,96335.13
2023-02-09T15:48:09.109Z,96334.16
2023-02-09T15:50:10.737Z,96335.63
2023-02-09T15:52:13.513Z,96331.41
2023-02-09T15:54:18.844Z,96335.28
2023-02-09T15:56:20.651Z,96331.22
2023-02-09T15:58:29.086Z,96331.25
2023-02-09T16:00:31.432Z,96328.38
2023-02-09T16:02:33.116Z,96330.13
2023-02-09T16:04:34.755Z,96339.50
2023-02-09T16:06:36.596Z,96346.22
2023-02-09T16:08:38.726Z,96343.16
2023-02-09T16:10:40.398Z,96337.81
2023-02-09T16:12:42.197Z,96340.16
2023-02-09T16:14:43.921Z,96339.22
2023-02-09T16:16:45.962Z,96343.03
2023-02-09T16:18:47.741Z,96347.34
2023-02-09T16:20:50.904Z,96354.44
2023-02-09T16:22:52.893Z,96348.16
2023-02-09T16:24:54.654Z,96345.63
2023-02-09T16:26:58.655Z,96344.41
2023-02-09T16:29:00.788Z,96340.75
2023-02-09T16:31:02.535Z,96354.38
2023-02-09T16:33:04.689Z,96356.53
2023-02-09T16:35:16.388Z,96355.00
2023-02-09T16:37:25.184Z,96363.53
2023-02-09T16:39:26.759Z,96358.00
2023-02-09T16:41:47.141Z,96355.03
2023-02-09T16:43:48.704Z,96359.81
2023-02-09T16:46:02.703Z,96364.28
2023-02-09T16:48:05.238Z,96360.06
2023-02-09T16:50:46.832Z,96364.50
2023-02-09T16:52:50.220Z,96366.81
2023-02-09T16:55:02.018Z,96361.06
2023-02-09T16:57:04.423Z,96367.06
2023-02-09T16:59:06.071Z,96365.34
2023-02-09T17:01:16.985Z,96364.22
2023-02-09T17:03:22.358Z,96364.03
2023-02-09T17:05:29.705Z,96354.38
2023-02-09T17:07:45.352Z,96347.22
2023-02-09T17:09:57.216Z,96349.94
2023-02-09T17:11:58.773Z,96355.66
2023-02-09T17:14:00.436Z,96356.69
2023-02-09T17:16:04.359Z,96361.84
2023-02-09T17:18:06.564Z,96362.47
2023-02-09T17:20:10.471Z,96364.75
2023-02-09T17:22:11.950Z,96365.78
2023-02-09T17:24:15.898Z,96373.59
2023-02-09T17:26:18.469Z,96363.44
2023-02-09T17:28:20.199Z,96370.28
2023-02-09T17:30:21.844Z,96365.84
2023-02-09T17:32:23.556Z,96370.16
2023-02-09T17:34:28.454Z,96366.50
2023-02-09T17:36:31.012Z,96375.69
2023-02-09T17:38:35.872Z,96370.38
2023-02-09T17:40:37.471Z,96363.59
2023-02-09T17:42:39.154Z,96357.53
2023-02-09T17:44:46.330Z,96366.84
2023-02-09T17:46:48.664Z,96363.22
2023-02-09T17:48:50.386Z,96364.03
2023-02-09T17:50:53.002Z,96363.88
2023-02-09T17:52:54.766Z,96362.06
2023-02-09T17:54:56.409Z,96364.50
2023-02-09T17:56:58.130Z,96358.78
2023-02-09T17:59:03.089Z,96364.22
2023-02-09T18:01:21.668Z,96360.69
2023-02-09T18:03:26.031Z,96359.88
2023-02-09T18:05:28.405Z,96358.88
2023-02-09T18:07:30.299Z,96350.19
2023-02-09T18:09:31.919Z,96359.53
2023-02-09T18:12:03.028Z,96356.84
2023-02-09T18:14:04.916Z,96358.56
2023-02-09T18:16:07.692Z,96350.13
2023-02-09T18:18:09.802Z,96351.31
2023-02-09T18:20:16.447Z,96348.94
2023-02-09T18:22:19.908Z,96348.16
2023-02-09T18:24:22.980Z,96350.63
2023-02-09T18:26:24.623Z,96350.56
2023-02-09T18:28:26.274Z,96351.38
2023-02-09T18:30:30.844Z,96347.88
2023-02-09T18:32:32.495Z,96351.34
2023-02-09T18:34:35.927Z,96353.19
2023-02-09T18:36:37.599Z,96354.88
2023-02-09T18:38:39.326Z,96356.81
2023-02-09T18:40:41.003Z,96355.16
2023-02-09T18:42:43.358Z,96345.69
2023-02-09T18:44:45.057Z,96357.03
2023-02-09T18:46:46.687Z,96358.91
2023-02-09T18:48:48.304Z,96358.72
2023-02-09T18:50:49.953Z,96359.28
2023-02-09T18:52:54.152Z,96364.03
2023-02-09T18:54:55.787Z,96359.50
2023-02-09T18:56:57.445Z,96358.44
2023-02-09T18:58:59.080Z,96366.78
2023-02-09T19:01:00.688Z,96370.03
2023-02-09T19:03:02.359Z,96364.00
2023-02-09T19:05:04.609Z,96366.44
2023-02-09T19:07:09.469Z,96363.75
2023-02-09T19:09:11.236Z,96373.97
2023-02-09T19:11:14.208Z,96364.50
2023-02-09T19:13:15.819Z,96362.75
2023-02-09T19:15:18.745Z,96366.16
2023-02-09T19:17:21.305Z,96367.13
2023-02-09T19:19:23.139Z,96371.41
2023-02-09T19:21:24.872Z,96374.00
2023-02-09T19:23:26.463Z,96367.94
2023-02-09T19:25:28.778Z,96372.97
2023-02-09T19:27:30.493Z,96367.94
2023-02-09T19:29:33.246Z,96366.25
2023-02-09T19:31:34.889Z,96365.41
2023-02-09T19:33:36.499Z,96366.31
2023-02-09T19:35:38.122Z,96372.38
2023-02-09T19:37:42.028Z,96364.84
2023-02-09T19:39:52.705Z,96368.56
2023-02-09T19:41:54.545Z,96371.09
2023-02-09T19:43:57.241Z,96369.31
2023-02-09T19:45:59.333Z,96370.19
2023-02-09T19:48:00.972Z,96372.91
2023-02-09T19:50:02.661Z,96378.94
2023-02-09T19:52:05.023Z,96375.50
2023-02-09T19:54:06.682Z,96369.56
2023-02-09T19:56:15.886Z,96372.91
2023-02-09T19:58:17.554Z,96368.66
2023-02-09T20:00:19.396Z,96375.56
2023-02-09T20:02:21.015Z,96368.09
2023-02-09T20:04:22.953Z,96380.25
2023-02-09T20:06:24.740Z,96382.91
2023-02-09T20:08:26.592Z,96385.56
2023-02-09T20:10:28.265Z,96385.66
2023-02-09T20:12:29.813Z,96385.00
2023-02-09T20:14:33.520Z,96379.84
2023-02-09T20:16:35.822Z,96376.31
2023-02-09T20:18:37.872Z,96384.00
2023-02-09T20:20:42.955Z,96387.41
2023-02-09T20:22:44.793Z,96391.72
2023-02-09T20:24:46.536Z,96392.53
2023-02-09T20:26:48.267Z,96384.97
2023-02-09T20:28:50.558Z,96389.34
2023-02-09T20:30:52.181Z,96388.53
2023-02-09T20:32:53.830Z,96388.69
2023-02-09T20:34:55.664Z,96396.38
2023-02-09T20:36:57.649Z,96392.22
2023-02-09T20:38:59.251Z,96392.16
2023-02-09T20:41:00.923Z,96390.38
2023-02-09T20:43:21.022Z,96392.16
2023-02-09T20:45:41.405Z,96392.06
2023-02-09T20:47:43.110Z,96388.84
2023-02-09T20:49:44.885Z,96381.09
2023-02-09T20:51:46.910Z,96385.41
2023-02-09T20:53:48.501Z,96380.22
2023-02-09T20:55:50.103Z,96380.28
2023-02-09T20:57:51.706Z,96381.88
2023-02-09T20:59:53.359Z,96373.38
2023-02-09T21:01:55.035Z,96376.91
2023-02-09T21:03:58.851Z,96382.91
2023-02-09T21:06:00.515Z,96377.91
2023-02-09T21:08:04.611Z,96375.31
2023-02-09T21:10:07.164Z,96378.81
2023-02-09T21:12:08.750Z,96379.66
2023-02-09T21:14:21.637Z,96375.34
2023-02-09T21:16:32.487Z,96369.31
2023-02-09T21:18:36.094Z,96363.25
2023-02-09T21:20:38.124Z,96357.28
2023-02-09T21:22:39.779Z,96361.50
2023-02-09T21:24:41.979Z,96363.16
2023-02-09T21:26:43.878Z,96363.97
2023-02-09T21:28:48.309Z,96351.94
2023-02-09T21:30:50.237Z,96361.41
2023-02-09T21:32:51.948Z,96372.03
2023-02-09T21:34:53.544Z,96369.63
2023-02-09T21:36:55.136Z,96365.38
2023-02-09T21:38:56.776Z,96367.09
2023-02-09T21:40:58.421Z,96365.38
2023-02-09T21:43:00.306Z,96371.31
2023-02-09T21:45:01.962Z,96373.06
2023-02-09T21:47:03.678Z,96369.75
2023-02-09T21:49:05.339Z,96373.16
2023-02-09T21:51:07.044Z,96376.56
2023-02-09T21:53:08.666Z,96372.88
2023-02-09T21:55:10.415Z,96373.16
2023-02-09T21:57:12.008Z,96372.31
2023-02-09T21:59:13.585Z,96373.13
2023-02-09T22:01:15.199Z,96380.06
2023-02-09T22:03:16.869Z,96379.28
2023-02-09T22:05:18.534Z,96371.56
2023-02-09T22:07:20.121Z,96377.50
2023-02-09T22:09:23.157Z,96373.94
2023-02-09T22:11:24.738Z,96373.13
2023-02-09T22:13:26.415Z,96370.56
2023-02-09T22:15:28.071Z,96377.50
2023-02-09T22:17:29.770Z,96379.22
2023-02-09T22:19:31.432Z,96379.25
2023-02-09T22:21:33.081Z,96384.31
2023-02-09T22:23:34.907Z,96375.63
2023-02-09T22:25:36.657Z,96376.53
2023-02-09T22:27:38.305Z,96374.81
2023-02-09T22:29:39.965Z,96369.56
2023-02-09T22:31:42.168Z,96379.81
2023-02-09T22:33:44.037Z,96377.31
2023-02-09T22:35:46.011Z,96376.56
2023-02-09T22:37:47.777Z,96373.19
2023-02-09T22:39:49.430Z,96379.19
2023-02-09T22:41:51.037Z,96375.81
2023-02-09T22:43:54.809Z,96377.56
2023-02-09T22:45:57.029Z,96369.94
2023-02-09T22:47:58.671Z,96364.91
2023-02-09T22:50:00.390Z,96374.41
2023-02-09T22:52:01.982Z,96373.69
2023-02-09T22:54:04.773Z,96375.56
2023-02-09T22:56:07.982Z,96386.59
2023-02-09T22:58:09.609Z,96396.09
2023-02-09T23:00:12.311Z,96385.84
2023-02-09T23:02:13.900Z,96385.91
2023-02-09T23:04:15.687Z,96382.69
2023-02-09T23:06:20.245Z,96383.53
2023-02-09T23:08:23.117Z,96385.28
2023-02-09T23:10:25.106Z,96381.78
2023-02-09T23:12:26.721Z,96384.13
2023-02-09T23:14:28.408Z,96390.84
2023-02-09T23:16:30.693Z,96383.94
2023-02-09T23:18:32.265Z,96383.03
2023-02-09T23:20:33.952Z,96377.81
2023-02-09T23:22:35.572Z,96378.50
2023-02-09T23:24:37.224Z,96381.97
2023-02-09T23:26:39.255Z,96378.59
2023-02-09T23:28:41.005Z,96385.44
2023-02-09T23:30:42.687Z,96387.06
2023-02-09T23:32:44.379Z,96382.78
2023-02-09T23:34:46.000Z,96391.41
2023-02-09T23:36:47.731Z,96388.88
2023-02-09T23:38:53.874Z,96388.06
2023-02-09T23:40:55.479Z,96393.13
2023-02-09T23:42:57.122Z,96392.31
2023-02-09T23:44:58.910Z,96394.91
2023-02-09T23:47:00.601Z,96390.69
2023-02-09T23:49:02.237Z,96393.25
2023-02-09T23:51:15.546Z,96394.19
2023-02-09T23:53:17.178Z,96390.84
2023-02-09T23:55:18.932Z,96391.03
2023-02-09T23:57:23.444Z,96388.53
2023-02-09T23:59:25.057Z,96394.44
